Time,TemperatureF,DewpointF,PressureIn,WindDirection,WindDirectionDegrees,WindSpeedMPH,WindSpeedGustMPH,Humidity,HourlyPrecipIn,Conditions,Clouds,dailyrainin,SolarRadiationWatts/m^2,SoftwareType,DateUTC
2013-05-24 00:00:00,79.0,71.6,29.99,SSE,151,0.0,0.0,78,0.00,,OVC019,0.00,0.00,VWS V15.00,2013-05-24 05:00:00,
2013-05-24 00:02:00,78.1,70.3,29.97,SSE,155,3.0,3.0,77,0.00,,,0.00,0.00,VWS V14.01,2013-05-24 05:02:00,
2013-05-24 00:07:00,78.1,70.3,29.97,SSE,156,0.0,4.0,77,0.00,,,0.00,0.00,VWS V14.01,2013-05-24 05:07:00,
2013-05-24 00:10:00,78.6,71.2,29.99,SSE,151,0.0,1.0,78,0.00,,CLR,0.00,0.00,VWS V15.00,2013-05-24 05:10:00,
2013-05-24 00:12:00,78.1,70.3,29.97,SSE,168,2.0,6.0,77,0.00,,,0.00,0.00,VWS V14.01,2013-05-24 05:12:00,
2013-05-24 00:17:00,78.1,69.9,29.97,SSE,163,0.0,6.0,76,0.00,,,0.00,0.00,VWS V14.01,2013-05-24 05:17:00,
2013-05-24 00:20:00,78.5,71.1,29.98,SE,142,2.0,3.0,78,0.00,,CLR,0.00,0.00,VWS V15.00,2013-05-24 05:20:00,
2013-05-24 00:22:00,78.1,69.9,29.97,SSE,162,0.0,2.0,76,0.00,,,0.00,0.00,VWS V14.01,2013-05-24 05:22:00,
2013-05-24 00:27:00,78.1,69.9,29.97,SSE,162,1.0,4.0,76,0.00,,,0.00,0.00,VWS V14.01,2013-05-24 05:27:00,
2013-05-24 00:30:00,78.3,70.9,29.98,SE,142,1.0,3.0,78,0.00,,CLR,0.00,0.00,VWS V15.00,2013-05-24 05:30:00,
2013-05-24 00:32:00,77.9,69.7,29.96,SSE,163,0.0,2.0,76,0.00,,,0.00,0.00,VWS V14.01,2013-05-24 05:32:00,
2013-05-24 00:37:00,77.9,69.7,29.96,SE,141,3.0,5.0,76,0.00,,,0.00,0.00,VWS V14.01,2013-05-24 05:37:00,
2013-05-24 00:40:00,78.3,70.9,29.98,SSE,148,3.0,3.0,78,0.00,,CLR,0.00,0.00,VWS V15.00,2013-05-24 05:40:00,
2013-05-24 00:42:00,77.9,69.7,29.96,ESE,113,2.0,3.0,76,0.00,,OVC200,0.00,0.00,VWS V14.01,2013-05-24 05:42:00,
2013-05-24 00:47:00,77.7,69.5,29.97,ESE,106,0.0,5.0,76,0.00,,,0.00,0.00,VWS V14.01,2013-05-24 05:47:00,
2013-05-24 00:50:00,78.1,70.7,29.97,SSE,155,3.0,4.0,78,0.00,,CLR,0.00,0.00,VWS V15.00,2013-05-24 05:50:00,
2013-05-24 00:52:00,77.7,69.5,29.97,ESE,103,1.0,2.0,76,0.00,,OVC200,0.00,0.00,VWS V14.01,2013-05-24 05:52:00,
2013-05-24 00:57:00,77.6,69.8,29.97,SE,139,0.0,4.0,77,0.00,,OVC200,0.00,0.00,VWS V14.01,2013-05-24 05:57:00,
2013-05-24 01:00:00,78.1,70.3,29.97,SSE,155,1.0,4.0,77,0.00,,CLR,0.00,0.00,VWS V15.00,2013-05-24 06:00:00,
2013-05-24 01:02:00,77.6,69.8,29.97,SE,135,1.0,3.0,77,0.00,,OVC200,0.00,0.00,VWS V14.01,2013-05-24 06:02:00,
2013-05-24 01:07:00,77.6,69.8,29.97,SE,134,2.0,3.0,77,0.00,,OVC200,0.00,0.00,VWS V14.01,2013-05-24 06:07:00,
2013-05-24 01:10:00,78.1,70.3,29.97,SSE,159,0.0,4.0,77,0.00,,CLR,0.00,0.00,VWS V15.00,2013-05-24 06:10:00,
2013-05-24 01:12:00,77.4,69.6,29.97,SE,137,1.0,3.0,77,0.00,,OVC200,0.00,0.00,VWS V14.01,2013-05-24 06:12:00,
2013-05-24 01:17:00,77.4,69.6,29.98,SE,136,0.0,4.0,77,0.00,,OVC200,0.00,0.00,VWS V14.01,2013-05-24 06:17:00,
2013-05-24 01:20:00,78.1,69.9,29.97,SSE,162,1.0,6.0,76,0.00,,CLR,0.00,0.00,VWS V15.00,2013-05-24 06:20:00,
2013-05-24 01:22:00,77.4,69.2,29.98,SE,137,0.0,1.0,76,0.00,,OVC200,0.00,0.00,VWS V14.01,2013-05-24 06:22:00,
2013-05-24 01:27:00,77.4,69.2,29.98,SE,138,0.0,3.0,76,0.00,,OVC200,0.00,0.00,VWS V14.01,2013-05-24 06:27:00,
2013-05-24 01:30:00,77.9,69.7,29.96,SSE,163,0.0,4.0,76,0.00,,CLR,0.00,0.00,VWS V15.00,2013-05-24 06:30:00,
2013-05-24 01:32:00,77.4,69.2,29.98,SE,143,0.0,4.0,76,0.00,,OVC200,0.00,0.00,VWS V14.01,2013-05-24 06:32:00,
2013-05-24 01:37:00,77.4,69.2,29.98,SE,146,0.0,4.0,76,0.00,,OVC200,0.00,0.00,VWS V14.01,2013-05-24 06:37:00,
2013-05-24 01:40:00,77.9,69.7,29.96,ESE,108,1.0,6.0,76,0.00,,CLR,0.00,0.00,VWS V15.00,2013-05-24 06:40:00,
2013-05-24 01:42:00,77.4,69.2,29.98,SE,146,0.0,2.0,76,0.00,,OVC250,0.00,0.00,VWS V14.01,2013-05-24 06:42:00,
2013-05-24 01:47:00,77.2,69.1,29.98,SE,146,0.0,2.0,76,0.00,,OVC250,0.00,0.00,VWS V14.01,2013-05-24 06:47:00,
2013-05-24 01:50:00,77.7,69.5,29.97,ESE,103,2.0,5.0,76,0.00,,CLR,0.00,0.00,VWS V15.00,2013-05-24 06:50:00,
2013-05-24 01:52:00,77.2,69.1,29.98,SE,146,0.0,0.0,76,0.00,,OVC250,0.00,0.00,VWS V14.01,2013-05-24 06:52:00,
2013-05-24 01:57:00,77.2,69.4,29.98,SE,146,0.0,2.0,77,0.00,,OVC250,0.00,0.00,VWS V14.01,2013-05-24 06:57:00,
2013-05-24 02:00:00,77.6,69.8,29.97,SE,135,1.0,4.0,77,0.00,,CLR,0.00,0.00,VWS V15.00,2013-05-24 07:00:00,
2013-05-24 02:02:00,77.0,69.2,29.97,SE,146,0.0,0.0,77,0.00,,OVC250,0.00,0.00,VWS V14.01,2013-05-24 07:02:00,
2013-05-24 02:07:00,76.8,69.1,29.97,SE,146,2.0,3.0,77,0.00,,OVC250,0.00,0.00,VWS V14.01,2013-05-24 07:07:00,
2013-05-24 02:10:00,77.4,69.6,29.97,SE,135,0.0,3.0,77,0.00,,CLR,0.00,0.00,VWS V15.00,2013-05-24 07:10:00,
2013-05-24 02:12:00,76.8,69.1,29.97,SSE,153,4.0,4.0,77,0.00,,OVC250,0.00,0.00,VWS V14.01,2013-05-24 07:12:00,
2013-05-24 02:17:00,76.7,69.3,29.96,SSE,156,2.0,6.0,78,0.00,,OVC250,0.00,0.00,VWS V14.01,2013-05-24 07:17:00,
2013-05-24 02:20:00,77.4,69.2,29.98,SE,138,1.0,4.0,76,0.00,,CLR,0.00,0.00,VWS V15.00,2013-05-24 07:20:00,
2013-05-24 02:22:00,76.7,69.3,29.96,SSE,159,2.0,3.0,78,0.00,,OVC250,0.00,0.00,VWS V14.01,2013-05-24 07:22:00,
2013-05-24 02:27:00,76.5,69.1,29.96,SSE,149,2.0,3.0,78,0.00,,OVC250,0.00,0.00,VWS V14.01,2013-05-24 07:27:00,
2013-05-24 02:30:00,77.4,69.2,29.98,SE,138,0.0,3.0,76,0.00,,CLR,0.00,0.00,VWS V15.00,2013-05-24 07:30:00,
2013-05-24 02:32:00,76.3,68.9,29.96,South,174,0.0,5.0,78,0.00,,OVC250,0.00,0.00,VWS V14.01,2013-05-24 07:32:00,
2013-05-24 02:37:00,76.3,68.9,29.96,South,174,0.0,5.0,78,0.00,,OVC250,0.00,0.00,VWS V14.01,2013-05-24 07:37:00,
2013-05-24 02:40:00,77.4,69.2,29.98,SE,146,2.0,4.0,76,0.00,,CLR,0.00,0.00,VWS V15.00,2013-05-24 07:40:00,
2013-05-24 02:43:00,76.3,68.9,29.96,South,174,0.0,0.0,78,0.00,,OVC250,0.00,0.00,VWS V14.01,2013-05-24 07:43:00,
2013-05-24 02:48:00,76.1,68.8,29.97,South,174,0.0,2.0,78,0.00,,OVC250,0.00,0.00,VWS V14.01,2013-05-24 07:48:00,
2013-05-24 02:50:00,77.2,69.1,29.98,SE,146,0.0,2.0,76,0.00,,CLR,0.00,0.00,VWS V15.00,2013-05-24 07:50:00,
2013-05-24 02:53:00,76.1,68.8,29.97,South,174,0.0,0.0,78,0.00,,OVC250,0.00,0.00,VWS V14.01,2013-05-24 07:53:00,
2013-05-24 02:58:00,76.1,68.8,29.97,South,174,0.0,0.0,78,0.00,,OVC250,0.00,0.00,VWS V14.01,2013-05-24 07:58:00,
2013-05-24 03:00:00,77.0,69.2,29.97,SE,146,0.0,2.0,77,0.00,,CLR,0.00,0.00,VWS V15.00,2013-05-24 08:00:00,
2013-05-24 03:03:00,76.1,69.1,29.99,South,174,1.0,1.0,79,0.00,,OVC250,0.00,0.00,VWS V14.01,2013-05-24 08:03:00,
2013-05-24 03:08:00,76.1,69.1,29.99,South,174,0.0,1.0,79,0.00,,OVC250,0.00,0.00,VWS V14.01,2013-05-24 08:08:00,
2013-05-24 03:10:00,76.8,69.1,29.97,SSE,153,2.0,5.0,77,0.00,,CLR,0.00,0.00,VWS V15.00,2013-05-24 08:10:00,
2013-05-24 03:13:00,76.1,69.1,29.99,South,174,0.0,0.0,79,0.00,,OVC250,0.00,0.00,VWS V14.01,2013-05-24 08:13:00,
2013-05-24 03:18:00,76.0,69.0,29.99,South,174,0.0,0.0,79,0.00,,OVC250,0.00,0.00,VWS V14.01,2013-05-24 08:18:00,
2013-05-24 03:20:00,76.7,69.3,29.96,SSE,159,0.0,6.0,78,0.00,,CLR,0.00,0.00,VWS V15.00,2013-05-24 08:20:00,
2013-05-24 03:23:00,76.0,69.0,29.99,South,174,0.0,0.0,79,0.00,,OVC250,0.00,0.00,VWS V14.01,2013-05-24 08:23:00,
2013-05-24 03:28:00,75.8,68.8,29.99,South,174,0.0,0.0,79,0.00,,OVC250,0.00,0.00,VWS V14.01,2013-05-24 08:28:00,
2013-05-24 03:30:00,76.5,69.1,29.96,SSE,149,0.0,3.0,78,0.00,,CLR,0.00,0.00,VWS V15.00,2013-05-24 08:30:00,
2013-05-24 03:33:00,75.8,69.2,29.98,South,174,0.0,0.0,80,0.00,,OVC250,0.00,0.00,VWS V14.01,2013-05-24 08:33:00,
2013-05-24 03:38:00,75.8,69.2,29.98,South,174,0.0,0.0,80,0.00,,OVC250,0.00,0.00,VWS V14.01,2013-05-24 08:38:00,
2013-05-24 03:40:00,76.3,68.9,29.96,South,174,0.0,5.0,78,0.00,,CLR,0.00,0.00,VWS V15.00,2013-05-24 08:40:00,
2013-05-24 03:43:00,75.6,69.0,29.98,South,174,0.0,0.0,80,0.00,,OVC250,0.00,0.00,VWS V14.01,2013-05-24 08:43:00,
2013-05-24 03:48:00,75.6,69.0,29.99,South,174,0.0,0.0,80,0.00,,OVC260,0.00,0.00,VWS V14.01,2013-05-24 08:48:00,
2013-05-24 03:50:00,76.1,68.8,29.97,South,174,0.0,2.0,78,0.00,,CLR,0.00,0.00,VWS V15.00,2013-05-24 08:50:00,
2013-05-24 03:53:00,75.4,68.8,29.99,South,174,0.0,0.0,80,0.00,,OVC260,0.00,0.00,VWS V14.01,2013-05-24 08:53:00,
2013-05-24 03:58:00,75.4,68.8,29.99,South,174,0.0,0.0,80,0.00,,OVC260,0.00,0.00,VWS V14.01,2013-05-24 08:58:00,
2013-05-24 04:00:00,76.1,68.8,29.99,South,174,0.0,0.0,78,0.00,,CLR,0.00,0.00,VWS V15.00,2013-05-24 09:00:00,
2013-05-24 04:03:00,75.3,68.7,29.99,South,174,0.0,0.0,80,0.00,,OVC260,0.00,0.00,VWS V14.01,2013-05-24 09:03:00,
2013-05-24 04:08:00,75.3,69.1,29.99,South,174,0.0,0.0,81,0.00,,OVC260,0.00,0.00,VWS V14.01,2013-05-24 09:08:00,
2013-05-24 04:10:00,76.1,69.1,29.99,South,174,0.0,1.0,79,0.00,,OVC019,0.00,0.00,VWS V15.00,2013-05-24 09:10:00,
2013-05-24 04:13:00,75.1,68.9,29.99,South,174,0.0,0.0,81,0.00,,OVC260,0.00,0.00,VWS V14.01,2013-05-24 09:13:00,
2013-05-24 04:18:00,75.1,68.9,29.99,South,174,0.0,1.0,81,0.00,,OVC260,0.00,0.00,VWS V14.01,2013-05-24 09:18:00,
2013-05-24 04:20:00,76.0,69.0,29.99,South,174,0.0,0.0,79,0.00,,CLR,0.00,0.00,VWS V15.00,2013-05-24 09:20:00,
2013-05-24 04:23:00,75.1,69.2,29.99,South,174,0.0,0.0,82,0.00,,OVC260,0.00,0.00,VWS V14.01,2013-05-24 09:23:00,
2013-05-24 04:28:00,75.1,69.2,29.99,South,174,0.0,0.0,82,0.00,,OVC260,0.00,0.00,VWS V14.01,2013-05-24 09:28:00,
2013-05-24 04:30:00,75.8,69.2,29.98,South,174,0.0,0.0,80,0.00,,CLR,0.00,0.00,VWS V15.00,2013-05-24 09:30:00,
2013-05-24 04:33:00,74.9,69.0,29.99,South,174,0.0,0.0,82,0.00,,OVC260,0.00,0.00,VWS V14.01,2013-05-24 09:33:00,
2013-05-24 04:38:00,74.9,69.0,29.99,South,174,0.0,0.0,82,0.00,,OVC260,0.00,0.00,VWS V14.01,2013-05-24 09:38:00,
2013-05-24 04:40:00,75.6,69.0,29.98,South,174,0.0,0.0,80,0.00,,CLR,0.00,0.00,VWS V15.00,2013-05-24 09:40:00,
2013-05-24 04:43:00,74.9,69.0,29.99,South,174,0.0,0.0,82,0.00,,OVC260,0.00,0.00,VWS V14.01,2013-05-24 09:43:00,
2013-05-24 04:48:00,74.7,69.2,30.00,South,174,0.0,3.0,83,0.00,,OVC260,0.00,0.00,VWS V14.01,2013-05-24 09:48:00,
2013-05-24 04:50:00,75.6,69.0,29.99,South,174,0.0,0.0,80,0.00,,CLR,0.00,0.00,VWS V15.00,2013-05-24 09:50:00,
2013-05-24 04:53:00,74.7,69.2,30.00,South,174,0.0,1.0,83,0.00,,OVC260,0.00,0.00,VWS V14.01,2013-05-24 09:53:00,
2013-05-24 04:58:00,74.6,69.1,30.00,South,174,0.0,1.0,83,0.00,,OVC260,0.00,0.00,VWS V14.01,2013-05-24 09:58:00,
2013-05-24 05:00:00,75.3,68.7,29.99,South,174,0.0,0.0,80,0.00,,CLR,0.00,0.00,VWS V15.00,2013-05-24 10:00:00,
2013-05-24 05:03:00,74.6,69.1,30.00,South,174,0.0,0.0,83,0.00,,OVC260,0.00,0.00,VWS V14.01,2013-05-24 10:03:00,
2013-05-24 05:08:00,74.6,69.4,30.00,South,174,0.0,0.0,84,0.00,,OVC260,0.00,0.00,VWS V14.01,2013-05-24 10:08:00,
2013-05-24 05:10:00,75.3,69.1,29.99,South,174,0.0,0.0,81,0.00,,CLR,0.00,0.00,VWS V15.00,2013-05-24 10:10:00,
2013-05-24 05:14:00,74.6,69.4,30.00,South,174,0.0,0.0,84,0.00,,OVC260,0.00,0.00,VWS V14.01,2013-05-24 10:14:00,
2013-05-24 05:19:00,74.6,69.4,30.00,South,174,0.0,0.0,84,0.00,,OVC260,0.00,0.00,VWS V14.01,2013-05-24 10:19:00,
2013-05-24 05:20:00,75.1,69.2,29.99,South,174,0.0,1.0,82,0.00,,CLR,0.00,0.00,VWS V15.00,2013-05-24 10:20:00,
2013-05-24 05:24:00,74.4,69.3,30.00,South,174,0.0,0.0,84,0.00,,OVC260,0.00,0.00,VWS V14.01,2013-05-24 10:24:00,
2013-05-24 05:29:00,74.4,69.3,30.00,South,174,0.0,2.0,84,0.00,,OVC260,0.00,0.00,VWS V14.01,2013-05-24 10:29:00,
2013-05-24 05:30:00,74.9,69.0,29.99,South,174,0.0,0.0,82,0.00,,CLR,0.00,0.00,VWS V15.00,2013-05-24 10:30:00,
2013-05-24 05:34:00,74.4,69.3,30.00,South,174,0.0,2.0,84,0.00,,OVC260,0.00,0.00,VWS V14.01,2013-05-24 10:34:00,
2013-05-24 05:39:00,74.2,69.4,30.00,South,174,0.0,2.0,85,0.00,,OVC260,0.00,0.00,VWS V14.01,2013-05-24 10:39:00,
2013-05-24 05:40:00,74.9,69.0,29.99,South,174,0.0,0.0,82,0.00,,CLR,0.00,0.00,VWS V15.00,2013-05-24 10:40:00,
2013-05-24 05:44:00,74.2,69.4,30.00,South,174,0.0,2.0,85,0.00,,OVC260,0.00,0.00,VWS V14.01,2013-05-24 10:44:00,
2013-05-24 05:49:00,74.2,69.4,30.00,South,174,0.0,2.0,85,0.00,,OVC260,0.00,0.00,VWS V14.01,2013-05-24 10:49:00,
2013-05-24 05:50:00,74.7,69.2,30.00,South,174,0.0,3.0,83,0.00,,CLR,0.00,0.00,VWS V15.00,2013-05-24 10:50:00,
2013-05-24 05:54:00,74.0,69.2,30.00,South,174,0.0,1.0,85,0.00,,OVC260,0.00,0.00,VWS V14.01,2013-05-24 10:54:00,
2013-05-24 05:59:00,74.0,69.2,30.00,South,174,1.0,2.0,85,0.00,,OVC260,0.00,0.00,VWS V14.01,2013-05-24 10:59:00,
2013-05-24 06:00:00,74.6,69.1,30.00,South,174,0.0,1.0,83,0.00,,CLR,0.00,0.00,VWS V15.00,2013-05-24 11:00:00,
2013-05-24 06:04:00,74.0,69.6,30.00,South,174,0.0,1.0,86,0.00,,OVC260,0.00,0.00,VWS V14.01,2013-05-24 11:04:00,
2013-05-24 06:09:00,74.0,69.6,30.00,South,174,0.0,2.0,86,0.00,,OVC260,0.00,0.00,VWS V14.01,2013-05-24 11:09:00,
2013-05-24 06:10:00,74.6,69.4,30.00,South,174,0.0,0.0,84,0.00,,CLR,0.00,0.00,VWS V15.00,2013-05-24 11:10:00,
2013-05-24 06:14:00,74.0,69.6,30.00,SSE,168,0.0,2.0,86,0.00,,OVC260,0.00,0.00,VWS V14.01,2013-05-24 11:14:00,
2013-05-24 06:18:00,74.0,69.6,30.01,SSE,163,0.0,3.0,86,0.00,,OVC260,0.00,0.00,VWS V14.01,2013-05-24 11:18:00,
2013-05-24 06:20:00,74.6,69.4,30.00,South,174,0.0,0.0,84,0.00,,CLR,0.00,0.00,VWS V15.00,2013-05-24 11:20:00,
2013-05-24 06:24:00,74.0,69.9,30.01,SSE,161,1.0,3.0,87,0.00,,OVC260,0.00,0.00,VWS V14.01,2013-05-24 11:24:00,
2013-05-24 06:28:00,73.9,69.8,30.01,SSE,161,1.0,3.0,87,0.00,,OVC260,0.00,5.00,VWS V14.01,2013-05-24 11:28:00,
2013-05-24 06:30:00,74.4,69.2,30.00,South,174,0.0,2.0,84,0.00,,CLR,0.00,0.00,VWS V15.00,2013-05-24 11:30:00,
2013-05-24 06:33:00,73.9,69.8,30.02,SSE,161,1.0,3.0,87,0.00,,OVC260,0.00,9.00,VWS V14.01,2013-05-24 11:33:00,
2013-05-24 06:38:00,73.9,69.8,30.02,SSE,161,0.0,3.0,87,0.00,,OVC260,0.00,16.00,VWS V14.01,2013-05-24 11:38:00,
2013-05-24 06:40:00,74.2,69.4,30.00,South,174,0.0,2.0,85,0.00,,CLR,0.00,0.00,VWS V15.00,2013-05-24 11:40:00,
2013-05-24 06:43:00,73.9,69.8,30.02,SSE,161,1.0,2.0,87,0.00,,OVC260,0.00,21.00,VWS V14.01,2013-05-24 11:43:00,
2013-05-24 06:48:00,73.9,69.8,30.02,SSE,161,1.0,3.0,87,0.00,,OVC260,0.00,30.00,VWS V14.01,2013-05-24 11:48:00,
2013-05-24 06:50:00,74.2,69.4,30.00,South,174,0.0,2.0,85,0.00,,CLR,0.00,0.00,VWS V15.00,2013-05-24 11:50:00,
2013-05-24 06:53:00,73.7,69.6,30.02,SSE,157,0.0,2.0,87,0.00,,OVC260,0.00,39.00,VWS V14.01,2013-05-24 11:53:00,
2013-05-24 06:58:00,73.7,69.6,30.02,SSE,157,0.0,3.0,87,0.00,,BKN260,0.00,46.00,VWS V14.01,2013-05-24 11:58:00,
2013-05-24 07:00:00,74.0,69.2,30.00,South,174,0.0,3.0,85,0.00,,CLR,0.00,0.00,VWS V15.00,2013-05-24 12:00:00,
2013-05-24 07:03:00,73.9,69.8,30.02,SSE,157,0.0,3.0,87,0.00,,BKN260,0.00,51.00,VWS V14.01,2013-05-24 12:03:00,
2013-05-24 07:09:00,73.9,69.8,30.02,SE,130,5.0,5.0,87,0.00,,BKN260,0.00,49.00,VWS V14.01,2013-05-24 12:09:00,
2013-05-24 07:10:00,74.0,69.6,30.00,SSE,168,0.0,3.0,86,0.00,,CLR,0.00,0.00,VWS V15.00,2013-05-24 12:10:00,
2013-05-24 07:13:00,73.9,69.8,30.02,SE,126,0.0,2.0,87,0.00,,BKN260,0.00,58.00,VWS V14.01,2013-05-24 12:13:00,
2013-05-24 07:19:00,73.9,69.8,30.03,SE,126,0.0,2.0,87,0.00,,BKN260,0.00,60.00,VWS V14.01,2013-05-24 12:19:00,
2013-05-24 07:20:00,74.0,69.6,30.01,SSE,163,1.0,3.0,86,0.00,,CLR,0.00,0.00,VWS V15.00,2013-05-24 12:20:00,
2013-05-24 07:24:00,74.0,69.9,30.03,SE,126,0.0,2.0,87,0.00,,BKN260,0.00,74.00,VWS V14.01,2013-05-24 12:24:00,
2013-05-24 07:29:00,74.0,69.9,30.03,ESE,121,0.0,4.0,87,0.00,,BKN260,0.00,86.00,VWS V14.01,2013-05-24 12:29:00,
2013-05-24 07:30:00,73.9,69.8,30.02,SSE,161,1.0,3.0,87,0.00,,CLR,0.00,5.00,VWS V15.00,2013-05-24 12:30:00,
2013-05-24 07:34:00,74.2,70.1,30.05,NNE,32,2.0,4.0,87,0.00,,BKN260,0.00,83.00,VWS V14.01,2013-05-24 12:34:00,
2013-05-24 07:39:00,74.2,70.1,30.05,NNE,32,2.0,4.0,87,0.00,,BKN260,0.00,93.00,VWS V14.01,2013-05-24 12:39:00,
2013-05-24 07:40:00,73.9,69.8,30.02,SSE,161,1.0,3.0,87,0.00,,CLR,0.00,19.00,VWS V15.00,2013-05-24 12:40:00,
2013-05-24 07:44:00,74.4,70.3,30.05,NNE,32,0.0,4.0,87,0.00,,BKN260,0.00,105.00,VWS V14.01,2013-05-24 12:44:00,
2013-05-24 07:49:00,74.6,70.5,30.06,NNE,33,0.0,4.0,87,0.00,,BKN260,0.00,105.00,VWS V14.01,2013-05-24 12:49:00,
2013-05-24 07:50:00,73.7,69.6,30.02,SSE,157,0.0,3.0,87,0.00,,CLR,0.00,33.00,VWS V15.00,2013-05-24 12:50:00,
2013-05-24 07:54:00,74.6,70.5,30.06,NE,37,0.0,4.0,87,0.00,,BKN260,0.00,109.00,VWS V14.01,2013-05-24 12:54:00,
2013-05-24 07:59:00,74.7,70.6,30.06,NE,37,0.0,4.0,87,0.00,,BKN260,0.00,98.00,VWS V14.01,2013-05-24 12:59:00,
2013-05-24 08:00:00,73.7,69.6,30.02,SSE,157,1.0,3.0,87,0.00,,CLR,0.00,49.00,VWS V15.00,2013-05-24 13:00:00,
2013-05-24 08:04:00,74.9,70.8,30.07,NE,37,0.0,2.0,87,0.00,,BKN260,0.00,88.00,VWS V14.01,2013-05-24 13:04:00,
2013-05-24 08:09:00,75.1,71.0,30.07,NNW,348,0.0,4.0,87,0.00,,BKN260,0.00,125.00,VWS V14.01,2013-05-24 13:09:00,
2013-05-24 08:10:00,73.9,69.8,30.02,SE,126,0.0,5.0,87,0.00,,CLR,0.00,51.00,VWS V15.00,2013-05-24 13:10:00,
2013-05-24 08:14:00,75.3,71.2,30.07,South,169,1.0,2.0,87,0.00,,BKN260,0.00,139.00,VWS V14.01,2013-05-24 13:14:00,
2013-05-24 08:19:00,75.4,71.3,30.07,South,169,0.0,2.0,87,0.00,,BKN260,0.00,172.00,VWS V14.01,2013-05-24 13:19:00,
2013-05-24 08:20:00,74.0,69.9,30.03,SE,126,0.0,3.0,87,0.00,,CLR,0.00,70.00,VWS V15.00,2013-05-24 13:20:00,
2013-05-24 08:24:00,75.6,71.1,30.07,South,169,0.0,2.0,86,0.00,,BKN260,0.00,174.00,VWS V14.01,2013-05-24 13:24:00,
2013-05-24 08:29:00,76.0,71.5,30.07,SE,132,3.0,3.0,86,0.00,,BKN260,0.00,179.00,VWS V14.01,2013-05-24 13:29:00,
2013-05-24 08:30:00,74.2,70.1,30.05,NNE,19,2.0,4.0,87,0.00,,CLR,0.00,86.00,VWS V15.00,2013-05-24 13:30:00,
2013-05-24 08:34:00,76.1,71.6,30.08,East,90,0.0,1.0,86,0.00,,BKN260,0.00,190.00,VWS V14.01,2013-05-24 13:34:00,
2013-05-24 08:39:00,76.3,71.5,30.08,East,90,0.0,4.0,85,0.00,,,0.00,232.00,VWS V14.01,2013-05-24 13:39:00,
2013-05-24 08:40:00,74.4,70.3,30.05,NNE,32,0.0,4.0,87,0.00,,CLR,0.00,90.00,VWS V15.00,2013-05-24 13:40:00,
2013-05-24 08:44:00,76.7,71.9,30.08,East,90,0.0,2.0,85,0.00,,,0.00,223.00,VWS V14.01,2013-05-24 13:44:00,
2013-05-24 08:49:00,76.8,71.6,30.08,East,90,0.0,2.0,84,0.00,,,0.00,197.00,VWS V14.01,2013-05-24 13:49:00,
2013-05-24 08:50:00,74.6,70.5,30.06,NNE,33,1.0,4.0,87,0.00,,CLR,0.00,104.00,VWS V15.00,2013-05-24 13:50:00,
2013-05-24 08:54:00,77.2,71.6,30.08,ESE,106,0.0,3.0,83,0.00,,,0.00,239.00,VWS V14.01,2013-05-24 13:54:00,
2013-05-24 08:59:00,77.4,71.8,30.08,SE,124,3.0,4.0,83,0.00,,,0.00,288.00,VWS V14.01,2013-05-24 13:59:00,
2013-05-24 09:00:00,74.9,70.8,30.07,NE,37,0.0,4.0,87,0.00,,CLR,0.00,95.00,VWS V15.00,2013-05-24 14:00:00,
2013-05-24 09:04:00,77.7,71.8,30.08,WSW,240,1.0,5.0,82,0.00,,,0.00,302.00,VWS V14.01,2013-05-24 14:04:00,
2013-05-24 09:09:00,78.1,72.2,30.08,SSW,194,3.0,5.0,82,0.00,,,0.00,297.00,VWS V14.01,2013-05-24 14:09:00,
2013-05-24 09:10:00,75.1,71.0,30.07,NNW,348,0.0,4.0,87,0.00,,CLR,0.00,127.00,VWS V15.00,2013-05-24 14:10:00,
2013-05-24 09:14:00,78.5,72.2,30.08,SSW,194,0.0,3.0,81,0.00,,,0.00,255.00,VWS V14.01,2013-05-24 14:14:00,
2013-05-24 09:19:00,78.5,71.8,30.08,SSE,168,3.0,8.0,80,0.00,,,0.00,353.00,VWS V14.01,2013-05-24 14:19:00,
2013-05-24 09:20:00,75.4,70.9,30.07,South,169,0.0,2.0,86,0.00,,CLR,0.00,165.00,VWS V15.00,2013-05-24 14:20:00,
2013-05-24 09:24:00,78.6,71.9,30.08,South,172,3.0,4.0,80,0.00,,,0.00,404.00,VWS V14.01,2013-05-24 14:24:00,
2013-05-24 09:29:00,79.0,72.3,30.08,South,171,1.0,5.0,80,0.00,,,0.00,420.00,VWS V14.01,2013-05-24 14:29:00,
2013-05-24 09:30:00,76.0,71.5,30.08,East,90,0.0,3.0,86,0.00,,CLR,0.00,151.00,VWS V15.00,2013-05-24 14:30:00,
2013-05-24 09:34:00,79.2,72.1,30.09,South,171,2.0,4.0,79,0.00,,,0.00,459.00,VWS V14.01,2013-05-24 14:34:00,
2013-05-24 09:39:00,79.4,72.3,30.09,South,171,4.0,5.0,79,0.00,,,0.00,443.00,VWS V14.01,2013-05-24 14:39:00,
2013-05-24 09:40:00,76.5,71.7,30.08,East,90,1.0,4.0,85,0.00,,CLR,0.00,213.00,VWS V15.00,2013-05-24 14:40:00,
2013-05-24 09:44:00,79.8,72.7,30.09,South,171,0.0,3.0,79,0.00,,,0.00,410.00,VWS V14.01,2013-05-24 14:44:00,
2013-05-24 09:49:00,79.9,72.4,30.09,South,171,1.0,4.0,78,0.00,,,0.00,292.00,VWS V14.01,2013-05-24 14:49:00,
2013-05-24 09:50:00,77.0,71.8,30.08,ESE,106,0.0,4.0,84,0.00,,OVC019,0.00,257.00,VWS V15.00,2013-05-24 14:50:00,
2013-05-24 09:54:00,80.3,72.4,30.09,South,171,0.0,2.0,77,0.00,,,0.00,508.00,VWS V14.01,2013-05-24 14:54:00,
2013-05-24 09:59:00,80.7,72.4,30.09,South,171,3.0,4.0,76,0.00,,,0.00,385.00,VWS V14.01,2013-05-24 14:59:00,
2013-05-24 10:00:00,77.6,71.7,30.08,SE,125,1.0,4.0,82,0.00,,CLR,0.00,243.00,VWS V15.00,2013-05-24 15:00:00,
2013-05-24 10:04:00,80.7,72.0,30.09,South,179,2.0,6.0,75,0.00,,,0.00,541.00,VWS V14.01,2013-05-24 15:04:00,
2013-05-24 10:09:00,80.7,72.0,30.09,South,184,3.0,6.0,75,0.00,,,0.00,529.00,VWS V14.01,2013-05-24 15:09:00,
2013-05-24 10:10:00,78.1,72.2,30.08,SSW,194,1.0,5.0,82,0.00,,CLR,0.00,373.00,VWS V15.00,2013-05-24 15:10:00,
2013-05-24 10:14:00,80.9,72.2,30.09,South,176,0.0,5.0,75,0.00,,,0.00,612.00,VWS V14.01,2013-05-24 15:14:00,
2013-05-24 10:19:00,81.2,72.1,30.08,South,175,0.0,5.0,74,0.00,,,0.00,622.00,VWS V14.01,2013-05-24 15:19:00,
2013-05-24 10:20:00,78.5,71.8,30.08,South,171,2.0,8.0,80,0.00,,CLR,0.00,394.00,VWS V15.00,2013-05-24 15:20:00,
2013-05-24 10:24:00,81.6,72.1,30.08,South,173,0.0,5.0,73,0.00,,,0.00,367.00,VWS V14.01,2013-05-24 15:24:00,
2013-05-24 10:29:00,82.0,72.1,30.08,South,173,3.0,5.0,72,0.00,,,0.00,248.00,VWS V14.01,2013-05-24 15:29:00,
2013-05-24 10:30:00,79.0,71.9,30.09,South,171,0.0,6.0,79,0.00,,CLR,0.00,439.00,VWS V15.00,2013-05-24 15:30:00,
2013-05-24 10:34:00,82.0,72.1,30.09,South,182,1.0,2.0,72,0.00,,,0.00,209.00,VWS V14.01,2013-05-24 15:34:00,
2013-05-24 10:39:00,81.8,71.9,30.09,South,183,6.0,6.0,72,0.00,,,0.00,167.00,VWS V14.01,2013-05-24 15:39:00,
2013-05-24 10:40:00,79.6,72.5,30.09,South,171,2.0,5.0,79,0.00,,CLR,0.00,392.00,VWS V15.00,2013-05-24 15:40:00,
2013-05-24 10:44:00,81.2,71.7,30.09,South,184,4.0,5.0,73,0.00,,,0.00,239.00,VWS V14.01,2013-05-24 15:44:00,
2013-05-24 10:49:00,81.1,72.0,30.09,South,184,3.0,5.0,74,0.00,,,0.00,292.00,VWS V14.01,2013-05-24 15:49:00,
2013-05-24 10:50:00,80.1,72.2,30.09,South,171,0.0,4.0,77,0.00,,CLR,0.00,526.00,VWS V15.00,2013-05-24 15:50:00,
2013-05-24 10:54:00,80.9,71.8,30.09,South,184,4.0,4.0,74,0.00,,,0.00,392.00,VWS V14.01,2013-05-24 15:54:00,
2013-05-24 10:59:00,80.9,71.8,30.09,South,184,4.0,5.0,74,0.00,,,0.00,652.00,VWS V14.01,2013-05-24 15:59:00,
2013-05-24 11:00:00,80.7,72.0,30.09,South,188,4.0,9.0,75,0.00,,CLR,0.00,348.00,VWS V15.00,2013-05-24 16:00:00,
2013-05-24 11:04:00,81.4,72.3,30.09,South,184,3.0,5.0,74,0.00,,,0.00,754.00,VWS V14.01,2013-05-24 16:04:00,
2013-05-24 11:09:00,82.2,72.3,30.09,South,189,3.0,7.0,72,0.00,,,0.00,745.00,VWS V14.01,2013-05-24 16:09:00,
2013-05-24 11:10:00,80.7,71.7,30.09,South,176,1.0,7.0,74,0.00,,CLR,0.00,555.00,VWS V15.00,2013-05-24 16:10:00,
2013-05-24 11:14:00,83.4,72.2,30.09,South,190,4.0,9.0,69,0.00,,,0.00,819.00,VWS V14.01,2013-05-24 16:14:00,
2013-05-24 11:19:00,83.6,71.9,30.09,SSW,194,6.0,9.0,68,0.00,,,0.00,381.00,VWS V14.01,2013-05-24 16:19:00,
2013-05-24 11:20:00,81.4,72.3,30.08,South,171,1.0,5.0,74,0.00,,CLR,0.00,652.00,VWS V15.00,2013-05-24 16:20:00,
2013-05-24 11:24:00,83.4,72.2,30.09,South,172,6.0,7.0,69,0.00,,,0.00,413.00,VWS V14.01,2013-05-24 16:24:00,
2013-05-24 11:29:00,83.0,72.6,30.09,South,169,5.0,10.0,71,0.00,,,0.00,592.00,VWS V14.01,2013-05-24 16:29:00,
2013-05-24 11:30:00,81.8,71.9,30.09,South,183,2.0,5.0,72,0.00,,CLR,0.00,221.00,VWS V15.00,2013-05-24 16:30:00,
2013-05-24 11:34:00,82.4,72.5,30.10,SSW,205,7.0,10.0,72,0.00,,,0.00,287.00,VWS V14.01,2013-05-24 16:34:00,
2013-05-24 11:39:00,82.0,72.5,30.10,South,183,7.0,10.0,73,0.00,,,0.00,346.00,VWS V14.01,2013-05-24 16:39:00,
2013-05-24 11:40:00,81.6,71.7,30.09,South,184,3.0,6.0,72,0.00,,CLR,0.00,139.00,VWS V15.00,2013-05-24 16:40:00,
2013-05-24 11:44:00,81.8,72.3,30.10,South,184,6.0,9.0,73,0.00,,OVC250,0.00,325.00,VWS V14.01,2013-05-24 16:44:00,
2013-05-24 11:49:00,81.6,72.1,30.10,South,182,4.0,9.0,73,0.00,,OVC250,0.00,292.00,VWS V14.01,2013-05-24 16:49:00,
2013-05-24 11:50:00,80.9,71.8,30.09,South,184,4.0,5.0,74,0.00,,CLR,0.00,392.00,VWS V15.00,2013-05-24 16:50:00,
2013-05-24 11:54:00,81.6,71.7,30.10,South,170,5.0,9.0,72,0.00,,OVC250,0.00,367.00,VWS V14.01,2013-05-24 16:54:00,
2013-05-24 11:59:00,81.6,71.3,30.10,South,178,5.0,9.0,71,0.00,,OVC250,0.00,269.00,VWS V14.01,2013-05-24 16:59:00,
2013-05-24 12:00:00,81.1,72.0,30.09,South,184,3.0,5.0,74,0.00,,CLR,0.00,710.00,VWS V15.00,2013-05-24 17:00:00,
2013-05-24 12:04:00,81.4,71.1,30.10,South,188,7.0,9.0,71,0.00,,OVC250,0.00,167.00,VWS V14.01,2013-05-24 17:04:00,
2013-05-24 12:09:00,81.4,71.1,30.10,South,178,5.0,9.0,71,0.00,,OVC250,0.00,452.00,VWS V14.01,2013-05-24 17:09:00,
2013-05-24 12:10:00,82.8,72.9,30.09,South,169,4.0,7.0,72,0.00,,CLR,0.00,810.00,VWS V15.00,2013-05-24 17:10:00,
2013-05-24 12:14:00,81.4,71.1,30.10,SSW,194,10.0,11.0,71,0.00,,OVC250,0.00,315.00,VWS V14.01,2013-05-24 17:14:00,
2013-05-24 12:19:00,81.2,71.3,30.10,SSW,194,6.0,11.0,72,0.00,,OVC250,0.00,332.00,VWS V14.01,2013-05-24 17:19:00,
2013-05-24 12:20:00,83.4,71.7,30.09,South,190,4.0,9.0,68,0.00,,CLR,0.00,373.00,VWS V15.00,2013-05-24 17:20:00,
2013-05-24 12:24:00,81.2,71.7,30.10,South,178,6.0,11.0,73,0.00,,OVC250,0.00,659.00,VWS V14.01,2013-05-24 17:24:00,
2013-05-24 12:29:00,81.8,71.9,30.10,South,183,5.0,11.0,72,0.00,,OVC250,0.00,803.00,VWS V14.01,2013-05-24 17:29:00,
2013-05-24 12:30:00,82.6,72.7,30.10,South,180,5.0,10.0,72,0.00,,CLR,0.00,316.00,VWS V15.00,2013-05-24 17:30:00,
2013-05-24 12:34:00,82.4,72.1,30.10,SSW,192,6.0,10.0,71,0.00,,OVC250,0.00,756.00,VWS V14.01,2013-05-24 17:34:00,
2013-05-24 12:39:00,82.6,71.8,30.10,South,175,5.0,10.0,70,0.00,,BKN250,0.00,457.00,VWS V14.01,2013-05-24 17:39:00,
2013-05-24 12:40:00,81.8,71.9,30.10,South,178,4.0,10.0,72,0.00,,CLR,0.00,299.00,VWS V15.00,2013-05-24 17:40:00,
2013-05-24 12:44:00,83.2,72.4,30.10,South,188,5.0,7.0,70,0.00,,BKN250,0.00,956.00,VWS V14.01,2013-05-24 17:44:00,
2013-05-24 12:50:00,83.4,71.7,30.09,South,173,4.0,8.0,68,0.00,,BKN250,0.00,858.00,VWS V14.01,2013-05-24 17:50:00,
2013-05-24 12:55:00,84.0,71.9,30.09,South,188,4.0,7.0,67,0.00,,BKN250,0.00,926.00,VWS V14.01,2013-05-24 17:55:00,
2013-05-24 13:00:00,84.5,71.4,30.09,South,186,4.0,8.0,65,0.00,,BKN250,0.00,856.00,VWS V14.01,2013-05-24 18:00:00,
2013-05-24 13:05:00,84.9,71.8,30.09,SSW,192,5.0,6.0,65,0.00,,BKN250,0.00,598.00,VWS V14.01,2013-05-24 18:05:00,
2013-05-24 13:10:00,85.1,71.6,30.09,South,190,6.0,7.0,64,0.00,,BKN250,0.00,868.00,VWS V14.01,2013-05-24 18:10:00,
2013-05-24 13:15:00,85.3,71.8,30.09,SSE,165,4.0,8.0,64,0.00,,BKN250,0.00,796.00,VWS V14.01,2013-05-24 18:15:00,
2013-05-24 13:20:00,85.1,71.1,30.09,South,173,4.0,11.0,63,0.00,,BKN250,0.00,617.00,VWS V14.01,2013-05-24 18:20:00,
2013-05-24 13:25:00,84.7,71.2,30.09,SSE,167,3.0,9.0,64,0.00,,BKN250,0.00,413.00,VWS V14.01,2013-05-24 18:25:00,
2013-05-24 13:30:00,84.9,71.4,30.09,South,173,4.0,9.0,64,0.00,,BKN250,0.00,656.00,VWS V14.01,2013-05-24 18:30:00,
2013-05-24 13:35:00,84.7,72.1,30.09,South,186,4.0,9.0,66,0.00,,BKN250,0.00,949.00,VWS V14.01,2013-05-24 18:35:00,
2013-05-24 13:40:00,85.3,71.8,30.09,SSW,199,4.0,9.0,64,0.00,,BKN250,0.00,900.00,VWS V14.01,2013-05-24 18:40:00,
2013-05-24 13:45:00,85.5,71.5,30.09,South,180,5.0,6.0,63,0.00,,OVC070,0.00,527.00,VWS V14.01,2013-05-24 18:45:00,
2013-05-24 13:50:00,85.1,71.1,30.08,South,178,5.0,9.0,63,0.00,,OVC070,0.00,564.00,VWS V14.01,2013-05-24 18:50:00,
2013-05-24 13:55:00,85.3,71.8,30.08,South,175,4.0,8.0,64,0.00,,OVC250,0.00,898.00,VWS V14.01,2013-05-24 18:55:00,
2013-05-24 14:00:00,85.5,70.5,30.08,South,173,4.0,10.0,61,0.00,,OVC250,0.00,925.00,VWS V14.01,2013-05-24 19:00:00,
2013-05-24 14:05:00,86.1,71.1,30.08,SSW,195,7.0,11.0,61,0.00,,OVC250,0.00,708.00,VWS V14.01,2013-05-24 19:05:00,
2013-05-24 14:10:00,86.3,71.3,30.08,South,184,2.0,11.0,61,0.00,,OVC250,0.00,710.00,VWS V14.01,2013-05-24 19:10:00,
2013-05-24 14:15:00,86.7,70.7,30.08,SSW,194,6.0,6.0,59,0.00,,OVC250,0.00,425.00,VWS V14.01,2013-05-24 19:15:00,
2013-05-24 14:20:00,86.3,70.3,30.07,South,171,10.0,10.0,59,0.00,,OVC070,0.00,394.00,VWS V14.01,2013-05-24 19:20:00,
2013-05-24 14:25:00,85.5,71.0,30.07,SE,133,6.0,10.0,62,0.00,,OVC250,0.00,462.00,VWS V14.01,2013-05-24 19:25:00,
2013-05-24 14:30:00,85.1,71.6,30.06,South,171,5.0,10.0,64,0.00,,OVC250,0.00,656.00,VWS V14.01,2013-05-24 19:30:00,
2013-05-24 14:35:00,85.1,72.0,30.06,South,169,3.0,6.0,65,0.00,,OVC250,0.00,446.00,VWS V14.01,2013-05-24 19:35:00,
2013-05-24 14:40:00,85.5,74.2,30.06,South,171,0.0,6.0,69,0.01,,OVC250,0.01,369.00,VWS V14.01,2013-05-24 19:40:00,
2013-05-24 14:45:00,85.5,75.9,30.06,South,171,0.0,2.0,73,0.02,,OVC250,0.02,441.00,VWS V14.01,2013-05-24 19:45:00,
2013-05-24 14:50:00,85.1,74.6,30.06,South,171,2.0,3.0,71,0.02,,OVC250,0.02,461.00,VWS V14.01,2013-05-24 19:50:00,
2013-05-24 14:55:00,84.7,73.8,30.06,South,171,4.0,5.0,70,0.02,,OVC250,0.02,499.00,VWS V14.01,2013-05-24 19:55:00,
2013-05-24 15:00:00,84.3,74.3,30.06,WSW,247,2.0,7.0,72,0.02,,OVC250,0.02,677.00,VWS V14.01,2013-05-24 20:00:00,
2013-05-24 15:05:00,84.5,74.5,30.05,SSW,212,4.0,5.0,72,0.02,,OVC250,0.02,821.00,VWS V14.01,2013-05-24 20:05:00,
2013-05-24 15:10:00,84.9,73.2,30.05,South,179,6.0,7.0,68,0.02,,OVC250,0.02,803.00,VWS V14.01,2013-05-24 20:10:00,
2013-05-24 15:16:00,85.1,72.0,30.05,South,183,7.0,7.0,65,0.02,,OVC250,0.02,745.00,VWS V14.01,2013-05-24 20:16:00,
2013-05-24 15:20:00,86.1,70.1,30.07,South,177,3.0,10.0,59,0.00,,CLR,0.00,381.00,VWS V15.00,2013-05-24 20:20:00,
2013-05-24 15:21:00,85.7,72.1,30.04,South,172,4.0,8.0,64,0.02,,OVC250,0.02,584.00,VWS V14.01,2013-05-24 20:21:00,
2013-05-24 15:26:00,85.9,71.8,30.04,South,175,5.0,9.0,63,0.02,,OVC250,0.02,592.00,VWS V14.01,2013-05-24 20:26:00,
2013-05-24 15:30:00,85.1,71.6,30.06,South,173,2.0,10.0,64,0.00,,CLR,0.00,693.00,VWS V15.00,2013-05-24 20:30:00,
2013-05-24 15:31:00,85.7,70.7,30.03,South,180,4.0,10.0,61,0.02,,OVC250,0.02,636.00,VWS V14.01,2013-05-24 20:31:00,
2013-05-24 15:36:00,85.9,70.4,30.03,SSE,165,5.0,9.0,60,0.02,,OVC250,0.02,621.00,VWS V14.01,2013-05-24 20:36:00,
2013-05-24 15:40:00,85.5,75.0,30.06,South,171,0.0,6.0,71,0.02,,CLR,0.02,357.00,VWS V15.00,2013-05-24 20:40:00,
2013-05-24 15:41:00,85.9,69.9,30.03,SSE,164,6.0,11.0,59,0.02,,OVC250,0.02,538.00,VWS V14.01,2013-05-24 20:41:00,
2013-05-24 15:46:00,85.7,70.2,30.03,South,176,5.0,9.0,60,0.00,,OVC250,0.02,471.00,VWS V14.01,2013-05-24 20:46:00,
2013-05-24 15:50:00,85.1,74.6,30.06,South,171,3.0,5.0,71,0.02,,CLR,0.02,503.00,VWS V15.00,2013-05-24 20:50:00,
2013-05-24 15:51:00,85.5,70.0,30.03,SSW,198,4.0,9.0,60,0.00,,OVC250,0.02,418.00,VWS V14.01,2013-05-24 20:51:00,
2013-05-24 15:56:00,85.3,70.3,30.03,South,171,1.0,6.0,61,0.00,,OVC250,0.02,376.00,VWS V14.01,2013-05-24 20:56:00,
2013-05-24 16:00:00,84.3,73.9,30.05,WSW,246,1.0,7.0,71,0.02,,CLR,0.02,779.00,VWS V15.00,2013-05-24 21:00:00,
2013-05-24 16:01:00,85.3,70.3,30.02,SSE,164,3.0,7.0,61,0.00,,OVC250,0.02,378.00,VWS V14.01,2013-05-24 21:01:00,
2013-05-24 16:06:00,85.5,70.5,30.02,SSE,167,2.0,7.0,61,0.00,,OVC250,0.02,378.00,VWS V14.01,2013-05-24 21:06:00,
2013-05-24 16:10:00,84.9,73.2,30.05,SSE,162,3.0,8.0,68,0.02,,CLR,0.02,795.00,VWS V15.00,2013-05-24 21:10:00,
2013-05-24 16:11:00,85.9,70.9,30.02,SSE,149,0.0,7.0,61,0.00,,OVC250,0.02,366.00,VWS V14.01,2013-05-24 21:11:00,
2013-05-24 16:16:00,86.1,71.1,30.03,SSE,155,0.0,6.0,61,0.00,,OVC250,0.02,350.00,VWS V14.01,2013-05-24 21:16:00,
2013-05-24 16:20:00,85.7,72.1,30.04,South,172,4.0,8.0,64,0.02,,CLR,0.02,584.00,VWS V15.00,2013-05-24 21:20:00,
2013-05-24 16:21:00,86.3,71.8,30.03,SSE,157,0.0,6.0,62,0.00,,OVC250,0.02,323.00,VWS V14.01,2013-05-24 21:21:00,
2013-05-24 16:26:00,86.5,71.5,30.03,SSE,154,1.0,3.0,61,0.00,,OVC250,0.02,295.00,VWS V14.01,2013-05-24 21:26:00,
2013-05-24 16:30:00,85.7,70.7,30.03,South,180,4.0,10.0,61,0.02,,CLR,0.02,636.00,VWS V15.00,2013-05-24 21:30:00,
2013-05-24 16:31:00,86.7,71.2,30.02,SSE,151,2.0,3.0,60,0.00,,OVC250,0.02,236.00,VWS V14.01,2013-05-24 21:31:00,
2013-05-24 16:36:00,86.5,71.9,30.02,ESE,106,2.0,4.0,62,0.00,,OVC250,0.02,239.00,VWS V14.01,2013-05-24 21:36:00,
2013-05-24 16:40:00,85.9,69.9,30.03,SSE,166,6.0,11.0,59,0.02,,CLR,0.02,538.00,VWS V15.00,2013-05-24 21:40:00,
2013-05-24 16:41:00,86.5,72.4,30.02,ESE,105,0.0,4.0,63,0.00,,OVC250,0.02,227.00,VWS V14.01,2013-05-24 21:41:00,
2013-05-24 16:46:00,86.5,72.4,30.02,ESE,105,0.0,0.0,63,0.00,,OVC250,0.02,223.00,VWS V14.01,2013-05-24 21:46:00,
2013-05-24 16:50:00,85.5,70.0,30.03,SSE,159,6.0,10.0,60,0.00,,CLR,0.02,399.00,VWS V15.00,2013-05-24 21:50:00,
2013-05-24 16:51:00,86.3,72.2,30.02,East,88,0.0,4.0,63,0.00,,OVC180,0.02,209.00,VWS V14.01,2013-05-24 21:51:00,
2013-05-24 16:56:00,86.1,72.0,30.02,East,89,0.0,3.0,63,0.00,,OVC180,0.02,206.00,VWS V14.01,2013-05-24 21:56:00,
2013-05-24 17:00:00,85.3,70.3,30.02,SSE,164,1.0,7.0,61,0.00,,CLR,0.02,378.00,VWS V15.00,2013-05-24 22:00:00,
2013-05-24 17:01:00,85.9,71.8,30.02,SSE,148,2.0,4.0,63,0.00,,OVC180,0.02,207.00,VWS V14.01,2013-05-24 22:01:00,
2013-05-24 17:06:00,85.9,71.4,30.02,SSE,167,2.0,6.0,62,0.00,,OVC180,0.02,209.00,VWS V14.01,2013-05-24 22:06:00,
2013-05-24 17:10:00,85.9,70.9,30.02,SSE,149,0.0,7.0,61,0.00,,CLR,0.02,362.00,VWS V15.00,2013-05-24 22:10:00,
2013-05-24 17:11:00,85.5,71.5,30.02,SSE,166,3.0,6.0,63,0.00,,OVC180,0.02,192.00,VWS V14.01,2013-05-24 22:11:00,
2013-05-24 17:16:00,85.5,71.5,30.01,SSE,166,0.0,3.0,63,0.00,,OVC180,0.02,172.00,VWS V14.01,2013-05-24 22:16:00,
2013-05-24 17:20:00,86.3,71.8,30.03,SSE,157,0.0,6.0,62,0.00,,CLR,0.02,323.00,VWS V15.00,2013-05-24 22:20:00,
2013-05-24 17:21:00,85.3,71.8,30.01,SSW,199,1.0,6.0,64,0.00,,OVC180,0.02,162.00,VWS V14.01,2013-05-24 22:21:00,
2013-05-24 17:26:00,85.1,71.6,30.01,East,98,0.0,4.0,64,0.00,,OVC180,0.02,155.00,VWS V14.01,2013-05-24 22:26:00,
2013-05-24 17:30:00,86.7,71.2,30.02,SSE,151,1.0,3.0,60,0.00,,CLR,0.02,236.00,VWS V15.00,2013-05-24 22:30:00,
2013-05-24 17:31:00,84.9,72.3,30.01,East,98,0.0,4.0,66,0.00,,OVC180,0.02,149.00,VWS V14.01,2013-05-24 22:31:00,
2013-05-24 17:36:00,84.7,72.1,30.01,SE,144,2.0,5.0,66,0.00,,OVC180,0.02,144.00,VWS V14.01,2013-05-24 22:36:00,
2013-05-24 17:40:00,86.5,72.4,30.02,ESE,105,0.0,4.0,63,0.00,,CLR,0.02,223.00,VWS V15.00,2013-05-24 22:40:00,
2013-05-24 17:41:00,84.5,71.9,30.01,SSE,159,1.0,6.0,66,0.00,,OVC180,0.02,137.00,VWS V14.01,2013-05-24 22:41:00,
2013-05-24 17:46:00,84.3,71.7,30.01,South,170,2.0,4.0,66,0.00,,OVC180,0.02,128.00,VWS V14.01,2013-05-24 22:46:00,
2013-05-24 17:50:00,86.3,72.2,30.02,East,88,0.0,4.0,63,0.00,,CLR,0.02,209.00,VWS V15.00,2013-05-24 22:50:00,
2013-05-24 17:51:00,84.1,71.5,30.01,ENE,78,1.0,6.0,66,0.00,,OVC180,0.02,116.00,VWS V14.01,2013-05-24 22:51:00,
2013-05-24 17:56:00,83.8,71.7,30.01,NE,34,2.0,9.0,67,0.00,,OVC180,0.02,111.00,VWS V14.01,2013-05-24 22:56:00,
2013-05-24 18:00:00,85.9,71.8,30.02,SSE,148,2.0,4.0,63,0.00,,CLR,0.02,207.00,VWS V15.00,2013-05-24 23:00:00,
2013-05-24 18:01:00,83.6,71.5,30.01,SSE,163,2.0,9.0,67,0.00,,OVC180,0.02,100.00,VWS V14.01,2013-05-24 23:01:00,
2013-05-24 18:06:00,83.4,71.7,30.01,South,169,1.0,5.0,68,0.00,,OVC180,0.02,88.00,VWS V14.01,2013-05-24 23:06:00,
2013-05-24 18:10:00,85.5,71.5,30.02,SSE,166,3.0,6.0,63,0.00,,CLR,0.02,192.00,VWS V15.00,2013-05-24 23:10:00,
2013-05-24 18:11:00,83.4,71.7,30.01,SSE,160,0.0,5.0,68,0.00,,OVC180,0.02,70.00,VWS V14.01,2013-05-24 23:11:00,
2013-05-24 18:16:00,83.2,71.6,30.01,SSE,161,0.0,3.0,68,0.00,,OVC180,0.02,60.00,VWS V14.01,2013-05-24 23:16:00,
2013-05-24 18:20:00,85.3,71.8,30.01,SSW,199,0.0,6.0,64,0.00,,CLR,0.02,162.00,VWS V15.00,2013-05-24 23:20:00,
2013-05-24 18:21:00,83.2,72.0,30.01,SSE,161,0.0,3.0,69,0.00,,OVC180,0.02,51.00,VWS V14.01,2013-05-24 23:21:00,
2013-05-24 18:26:00,82.8,71.6,30.01,South,179,0.0,9.0,69,0.00,,OVC180,0.02,44.00,VWS V14.01,2013-05-24 23:26:00,
2013-05-24 18:30:00,84.9,72.3,30.01,East,98,0.0,4.0,66,0.00,,CLR,0.02,149.00,VWS V15.00,2013-05-24 23:30:00,
2013-05-24 18:31:00,82.4,71.6,30.02,SSW,202,0.0,9.0,70,0.00,,OVC180,0.02,39.00,VWS V14.01,2013-05-24 23:31:00,
2013-05-24 18:36:00,82.0,71.3,30.02,ESE,105,3.0,6.0,70,0.00,,OVC180,0.02,33.00,VWS V14.01,2013-05-24 23:36:00,
2013-05-24 18:40:00,84.5,71.9,30.01,SSE,159,0.0,6.0,66,0.00,,CLR,0.02,137.00,VWS V15.00,2013-05-24 23:40:00,
2013-05-24 18:41:00,81.6,71.3,30.02,South,171,2.0,6.0,71,0.00,,OVC180,0.02,30.00,VWS V14.01,2013-05-24 23:41:00,
2013-05-24 18:46:00,81.6,71.3,30.03,South,181,2.0,9.0,71,0.00,,OVC180,0.02,26.00,VWS V14.01,2013-05-24 23:46:00,
2013-05-24 18:50:00,84.1,71.5,30.01,ENE,78,1.0,6.0,66,0.00,,CLR,0.02,116.00,VWS V15.00,2013-05-24 23:50:00,
2013-05-24 18:51:00,81.4,71.1,30.03,SSW,200,3.0,9.0,71,0.00,,OVC180,0.02,23.00,VWS V14.01,2013-05-24 23:51:00,
2013-05-24 18:56:00,81.2,70.9,30.03,SSW,198,0.0,3.0,71,0.00,,OVC180,0.02,19.00,VWS V14.01,2013-05-24 23:56:00,
2013-05-24 19:00:00,83.6,71.5,30.01,SSE,163,1.0,9.0,67,0.00,,CLR,0.02,100.00,VWS V15.00,2013-05-25 00:00:00,
2013-05-24 19:02:00,81.2,70.9,30.03,SSW,192,0.0,3.0,71,0.00,,OVC180,0.02,18.00,VWS V14.01,2013-05-25 00:02:00,
2013-05-24 19:07:00,81.1,71.2,30.03,SSE,148,0.0,3.0,72,0.00,,OVC180,0.02,16.00,VWS V14.01,2013-05-25 00:07:00,
2013-05-24 19:10:00,83.4,71.7,30.01,SSE,160,0.0,5.0,68,0.00,,CLR,0.02,70.00,VWS V15.00,2013-05-25 00:10:00,
2013-05-24 19:12:00,81.1,71.2,30.03,SSE,148,0.0,1.0,72,0.00,,OVC180,0.02,12.00,VWS V14.01,2013-05-25 00:12:00,
2013-05-24 19:17:00,80.9,71.0,30.03,SSE,148,0.0,3.0,72,0.00,,OVC180,0.02,11.00,VWS V14.01,2013-05-25 00:17:00,
2013-05-24 19:20:00,83.2,72.0,30.01,SSE,161,0.0,3.0,69,0.00,,CLR,0.02,51.00,VWS V15.00,2013-05-25 00:20:00,
2013-05-24 19:22:00,80.9,71.4,30.03,SSE,155,0.0,3.0,73,0.00,,OVC180,0.02,9.00,VWS V14.01,2013-05-25 00:22:00,
2013-05-24 19:27:00,80.7,71.2,30.03,South,172,0.0,6.0,73,0.00,,OVC180,0.02,7.00,VWS V14.01,2013-05-25 00:27:00,
2013-05-24 19:30:00,82.4,71.6,30.02,SSW,202,0.0,9.0,70,0.00,,CLR,0.02,39.00,VWS V15.00,2013-05-25 00:30:00,
2013-05-24 19:32:00,80.5,71.5,30.04,South,172,0.0,1.0,74,0.00,,OVC180,0.02,7.00,VWS V14.01,2013-05-25 00:32:00,
2013-05-24 19:37:00,80.5,71.5,30.04,South,172,0.0,2.0,74,0.00,,OVC180,0.02,5.00,VWS V14.01,2013-05-25 00:37:00,
2013-05-24 19:40:00,81.6,71.3,30.02,South,171,2.0,6.0,71,0.00,,CLR,0.02,30.00,VWS V15.00,2013-05-25 00:40:00,
2013-05-24 19:42:00,80.3,71.3,30.04,South,172,0.0,3.0,74,0.00,,OVC180,0.02,5.00,VWS V14.01,2013-05-25 00:42:00,
2013-05-24 19:47:00,80.3,71.3,30.03,South,172,0.0,3.0,74,0.00,,OVC180,0.02,0.00,VWS V14.01,2013-05-25 00:47:00,
2013-05-24 19:50:00,81.4,71.1,30.03,SSW,200,3.0,9.0,71,0.00,,CLR,0.02,23.00,VWS V15.00,2013-05-25 00:50:00,
2013-05-24 19:52:00,80.1,71.5,30.03,South,172,0.0,1.0,75,0.00,,OVC180,0.02,0.00,VWS V14.01,2013-05-25 00:52:00,
2013-05-24 19:57:00,80.1,71.5,30.03,South,172,0.0,2.0,75,0.00,,OVC180,0.02,0.00,VWS V14.01,2013-05-25 00:57:00,
2013-05-24 20:03:00,80.1,71.5,30.03,South,172,0.0,0.0,75,0.00,,OVC180,0.02,0.00,VWS V14.01,2013-05-25 01:03:00,
2013-05-24 20:08:00,79.9,71.3,30.03,South,172,0.0,4.0,75,0.00,,OVC180,0.02,0.00,VWS V14.01,2013-05-25 01:08:00,
2013-05-24 20:10:00,81.1,71.2,30.03,SSE,148,0.0,3.0,72,0.00,,CLR,0.02,12.00,VWS V15.00,2013-05-25 01:10:00,
2013-05-24 20:13:00,79.9,71.3,30.03,South,172,0.0,0.0,75,0.00,,OVC180,0.02,0.00,VWS V14.01,2013-05-25 01:13:00,
2013-05-24 20:18:00,79.8,71.6,30.03,South,172,0.0,1.0,76,0.00,,OVC180,0.02,0.00,VWS V14.01,2013-05-25 01:18:00,
2013-05-24 20:20:00,80.9,71.4,30.03,SSE,155,1.0,4.0,73,0.00,,CLR,0.02,9.00,VWS V15.00,2013-05-25 01:20:00,
2013-05-24 20:23:00,79.8,71.6,30.03,South,172,0.0,0.0,76,0.00,,OVC180,0.02,0.00,VWS V14.01,2013-05-25 01:23:00,
2013-05-24 20:28:00,79.8,71.6,30.03,South,172,0.0,0.0,76,0.00,,OVC180,0.02,0.00,VWS V14.01,2013-05-25 01:28:00,
2013-05-24 20:30:00,80.7,71.7,30.04,South,172,0.0,6.0,74,0.00,,CLR,0.02,7.00,VWS V15.00,2013-05-25 01:30:00,
2013-05-24 20:33:00,79.6,71.4,30.03,South,172,0.0,1.0,76,0.00,,OVC180,0.02,0.00,VWS V14.01,2013-05-25 01:33:00,
2013-05-24 20:39:00,79.6,71.8,30.03,South,172,0.0,1.0,77,0.00,,OVC180,0.02,0.00,VWS V14.01,2013-05-25 01:39:00,
2013-05-24 20:40:00,80.5,71.5,30.04,South,172,0.0,2.0,74,0.00,,CLR,0.02,5.00,VWS V15.00,2013-05-25 01:40:00,
2013-05-24 20:44:00,79.4,71.6,30.03,South,172,1.0,1.0,77,0.00,,OVC180,0.02,0.00,VWS V14.01,2013-05-25 01:44:00,
2013-05-24 20:49:00,79.4,71.6,30.03,South,172,0.0,3.0,77,0.00,,OVC090,0.02,0.00,VWS V14.01,2013-05-25 01:49:00,
2013-05-24 20:50:00,80.3,71.7,30.03,South,172,0.0,3.0,75,0.00,,CLR,0.02,0.00,VWS V15.00,2013-05-25 01:50:00,
2013-05-24 20:54:00,79.4,71.6,30.03,South,172,0.0,1.0,77,0.00,,OVC090,0.02,0.00,VWS V14.01,2013-05-25 01:54:00,
2013-05-24 20:59:00,79.4,71.9,30.03,SSW,209,10.0,10.0,78,0.00,,OVC090,0.02,0.00,VWS V14.01,2013-05-25 01:59:00,
2013-05-24 21:00:00,80.1,71.5,30.03,South,172,0.0,2.0,75,0.00,,CLR,0.02,0.00,VWS V15.00,2013-05-25 02:00:00,
2013-05-24 21:04:00,76.8,66.3,30.04,WSW,251,9.0,18.0,70,0.00,,OVC090,0.02,0.00,VWS V14.01,2013-05-25 02:04:00,
2013-05-24 21:09:00,76.0,64.3,30.04,West,259,9.0,18.0,67,0.00,,OVC090,0.02,0.00,VWS V14.01,2013-05-25 02:09:00,
2013-05-24 21:10:00,79.9,71.3,30.03,South,172,0.0,4.0,75,0.00,,CLR,0.02,0.00,VWS V15.00,2013-05-25 02:10:00,
2013-05-24 21:14:00,75.3,63.6,30.04,SW,226,11.0,20.0,67,0.00,,OVC090,0.02,0.00,VWS V14.01,2013-05-25 02:14:00,
2013-05-24 21:19:00,74.7,63.5,30.05,SW,219,14.0,20.0,68,0.00,,OVC090,0.02,0.00,VWS V14.01,2013-05-25 02:19:00,
2013-05-24 21:20:00,79.8,71.6,30.03,South,172,0.0,1.0,76,0.00,,CLR,0.02,0.00,VWS V15.00,2013-05-25 02:20:00,
2013-05-24 21:24:00,74.4,64.0,30.05,WSW,238,10.0,14.0,70,0.00,,OVC090,0.02,0.00,VWS V14.01,2013-05-25 02:24:00,
2013-05-24 21:29:00,74.2,64.6,30.05,WSW,240,11.0,16.0,72,0.00,,OVC090,0.02,0.00,VWS V14.01,2013-05-25 02:29:00,
2013-05-24 21:30:00,79.6,71.4,30.03,South,172,0.0,1.0,76,0.00,,CLR,0.02,0.00,VWS V15.00,2013-05-25 02:30:00,
2013-05-24 21:34:00,74.0,65.6,30.05,WSW,250,4.0,11.0,75,0.02,,OVC090,0.04,0.00,VWS V14.01,2013-05-25 02:34:00,
2013-05-24 21:39:00,73.3,65.7,30.05,WSW,256,3.0,14.0,77,0.03,,OVC090,0.05,0.00,VWS V14.01,2013-05-25 02:39:00,
2013-05-24 21:40:00,79.6,71.8,30.03,South,172,0.0,3.0,77,0.00,,CLR,0.02,0.00,VWS V15.00,2013-05-25 02:40:00,
2013-05-24 21:44:00,72.7,65.8,30.05,NW,310,4.0,7.0,79,0.03,,-RA,0.05,0.00,VWS V14.01,2013-05-25 02:44:00,
2013-05-24 21:49:00,72.3,65.8,30.07,NNW,333,3.0,7.0,80,0.03,,-RA,0.05,0.00,VWS V14.01,2013-05-25 02:49:00,
2013-05-24 21:50:00,79.4,71.6,30.03,South,172,0.0,3.0,77,0.00,,CLR,0.02,0.00,VWS V15.00,2013-05-25 02:50:00,
2013-05-24 21:54:00,72.0,66.2,30.07,NW,311,4.0,9.0,82,0.03,,-RA,0.05,0.00,VWS V14.01,2013-05-25 02:54:00,
2013-05-24 21:59:00,71.6,66.2,30.07,NW,317,5.0,9.0,83,0.03,,-RA,0.05,0.00,VWS V14.01,2013-05-25 02:59:00,
2013-05-24 22:00:00,77.6,69.8,30.04,SSW,204,18.0,30.0,77,0.00,,CLR,0.02,0.00,VWS V15.00,2013-05-25 03:00:00,
2013-05-24 22:04:00,71.3,65.9,30.08,NNW,329,3.0,6.0,83,0.03,,-RA,0.05,0.00,VWS V14.01,2013-05-25 03:04:00,
2013-05-24 22:09:00,70.9,66.2,30.08,North,349,4.0,6.0,85,0.03,,-RA,0.05,0.00,VWS V14.01,2013-05-25 03:09:00,
2013-05-24 22:10:00,75.8,64.1,30.04,SW,221,16.0,18.0,67,0.00,,CLR,0.02,0.00,VWS V15.00,2013-05-25 03:10:00,
2013-05-24 22:14:00,70.8,66.1,30.08,North,351,3.0,7.0,85,0.03,,-RA,0.05,0.00,VWS V14.01,2013-05-25 03:14:00,
2013-05-24 22:19:00,70.6,66.2,30.09,NW,323,4.0,7.0,86,0.03,,-RA,0.05,0.00,VWS V14.01,2013-05-25 03:19:00,
2013-05-24 22:20:00,74.4,63.6,30.05,SW,230,6.0,20.0,69,0.00,,CLR,0.02,0.00,VWS V15.00,2013-05-25 03:20:00,
2013-05-24 22:24:00,70.6,66.6,30.09,NNW,327,1.0,9.0,87,0.03,,RA,0.05,0.00,VWS V14.01,2013-05-25 03:24:00,
2013-05-24 22:29:00,70.4,66.3,30.09,NNE,13,3.0,9.0,87,0.03,,-RA,0.05,0.00,VWS V14.01,2013-05-25 03:29:00,
2013-05-24 22:30:00,74.2,65.0,30.05,SW,214,6.0,16.0,73,0.01,,CLR,0.03,0.00,VWS V15.00,2013-05-25 03:30:00,
2013-05-24 22:34:00,70.3,66.2,30.14,SE,132,0.0,4.0,87,0.02,,-RA,0.05,0.00,VWS V14.01,2013-05-25 03:34:00,
2013-05-24 22:39:00,70.3,66.6,30.14,SSE,155,1.0,6.0,88,0.04,,-RA,0.07,0.00,VWS V14.01,2013-05-25 03:39:00,
2013-05-24 22:40:00,73.0,65.7,30.05,WSW,237,6.0,15.0,78,0.03,,CLR,0.05,0.00,VWS V15.00,2013-05-25 03:40:00,
2013-05-24 22:44:00,70.3,66.9,30.14,South,176,4.0,9.0,89,0.02,,-RA,0.07,0.00,VWS V14.01,2013-05-25 03:44:00,
2013-05-24 22:49:00,69.9,66.5,30.16,South,172,1.0,9.0,89,0.02,,-RA,0.07,0.00,VWS V14.01,2013-05-25 03:49:00,
2013-05-24 22:50:00,72.1,65.9,30.07,NNW,331,3.0,7.0,81,0.03,,CLR,0.05,0.00,VWS V15.00,2013-05-25 03:50:00,
2013-05-24 22:54:00,69.9,66.5,30.16,SSE,163,1.0,4.0,89,0.02,,-RA,0.07,0.00,VWS V14.01,2013-05-25 03:54:00,
2013-05-24 22:59:00,69.9,66.5,30.16,SSE,163,2.0,4.0,89,0.02,,-RA,0.07,0.00,VWS V14.01,2013-05-25 03:59:00,
2013-05-24 23:00:00,71.5,66.1,30.08,NW,316,4.0,9.0,83,0.03,,CLR,0.05,0.00,VWS V15.00,2013-05-25 04:00:00,
2013-05-24 23:01:00,69.9,66.5,30.14,SSW,199,7.0,7.0,89,0.02,,-RA,0.07,0.00,VWS V14.01,2013-05-25 04:01:00,
2013-05-24 23:06:00,69.6,66.2,30.14,SW,229,9.0,12.0,89,0.02,,-RA,0.07,0.00,VWS V14.01,2013-05-25 04:06:00,
2013-05-24 23:10:00,70.9,66.2,30.08,North,350,7.0,7.0,85,0.03,,CLR,0.05,0.00,VWS V15.00,2013-05-25 04:10:00,
2013-05-24 23:11:00,69.1,65.7,30.14,SW,221,4.0,4.0,89,0.02,,-RA,0.07,0.00,VWS V14.01,2013-05-25 04:11:00,
2013-05-24 23:16:00,68.9,65.5,30.14,SW,221,2.0,4.0,89,0.02,,-RA,0.07,0.00,VWS V14.01,2013-05-25 04:16:00,
2013-05-24 23:20:00,70.6,66.2,30.09,NW,325,9.0,9.0,86,0.03,,CLR,0.05,0.00,VWS V15.00,2013-05-25 04:20:00,
2013-05-24 23:21:00,68.9,65.5,30.14,SW,221,0.0,0.0,89,0.02,,-RA,0.07,0.00,VWS V14.01,2013-05-25 04:21:00,
2013-05-24 23:26:00,68.9,65.5,30.14,SW,221,0.0,2.0,89,0.02,,-RA,0.07,0.00,VWS V14.01,2013-05-25 04:26:00,
2013-05-24 23:30:00,70.4,66.3,30.14,SE,132,4.0,9.0,87,0.03,,CLR,0.05,0.00,VWS V15.00,2013-05-25 04:30:00,
2013-05-24 23:31:00,68.9,65.8,30.13,SW,232,2.0,2.0,90,0.02,,-RA,0.07,0.00,VWS V14.01,2013-05-25 04:31:00,
2013-05-24 23:36:00,68.9,65.8,30.13,WSW,248,2.0,5.0,90,0.02,,-RA,0.07,0.00,VWS V14.01,2013-05-25 04:36:00,
2013-05-24 23:40:00,70.4,66.7,30.14,SSE,155,3.0,6.0,88,0.04,,CLR,0.07,0.00,VWS V15.00,2013-05-25 04:40:00,
2013-05-24 23:41:00,68.9,65.8,30.13,WSW,252,4.0,4.0,90,0.00,, +RA,0.07,0.00,VWS V14.01,2013-05-25 04:41:00,
2013-05-24 23:46:00,69.1,66.1,30.14,WSW,252,2.0,4.0,90,0.00,, +RA,0.07,0.00,VWS V14.01,2013-05-25 04:46:00,
2013-05-24 23:50:00,69.9,66.5,30.16,South,172,1.0,9.0,89,0.02,,CLR,0.07,0.00,VWS V15.00,2013-05-25 04:50:00,
2013-05-24 23:51:00,69.1,66.1,30.14,WSW,252,1.0,2.0,90,0.00,, +RA,0.07,0.00,VWS V14.01,2013-05-25 04:51:00,
2013-05-24 23:56:00,69.1,66.4,30.14,WSW,254,1.0,5.0,91,0.00,, +RA,0.07,0.00,VWS V14.01,2013-05-25 04:56:00,